Time;durP1;ratioP1;P1;durP2;ratioP2;P2;SDS_P1;SDS_P2;PMS_P1;PMS_P2;Temp;Humidity;BMP_temperature;BMP_pressure;BME280_temperature;BME280_humidity;BME280_pressure;Samples;Min_cycle;Max_cycle;Signal;HPM_P1;HPM_P2
2023/01/24 00:02:09;;;;;;;11.43;7.78;;;;;;;;;;6262829;28;20247;-71
2023/01/24 00:05:11;;;;;;;11.82;7.38;;;;;;;;;;6265275;28;20045;-74
2023/01/24 00:08:14;;;;;;;12.05;6.75;;;;;;;;;;6263357;28;20171;-74
2023/01/24 00:11:16;;;;;;;11.13;7.45;;;;;;;;;;6261957;28;20119;-74
2023/01/24 00:14:17;;;;;;;9.65;6.22;;;;;;;;;;6263231;28;20228;-73
2023/01/24 00:17:21;;;;;;;9.20;6.43;;;;;;;;;;6261960;28;20053;-70
2023/01/24 00:20:23;;;;;;;10.90;6.80;;;;;;;;;;6263464;28;20248;-74
2023/01/24 00:23:25;;;;;;;10.07;6.55;;;;;;;;;;6259419;28;20337;-74
2023/01/24 00:26:26;;;;;;;10.65;6.85;;;;;;;;;;6262355;28;20044;-74
2023/01/24 00:29:28;;;;;;;10.70;6.40;;;;;;;;;;6265227;28;20049;-71
2023/01/24 00:32:31;;;;;;;10.65;6.43;;;;;;;;;;6262297;28;20049;-71
2023/01/24 00:35:33;;;;;;;9.33;6.20;;;;;;;;;;6265056;28;20454;-72
2023/01/24 00:38:35;;;;;;;11.10;6.80;;;;;;;;;;6263011;28;20053;-72
2023/01/24 00:41:36;;;;;;;10.43;6.25;;;;;;;;;;6267352;28;20057;-72
2023/01/24 00:44:38;;;;;;;10.05;6.25;;;;;;;;;;6266347;28;20049;-74
2023/01/24 00:47:41;;;;;;;11.93;7.10;;;;;;;;;;6267069;28;20064;-73
2023/01/24 00:50:43;;;;;;;9.35;5.68;;;;;;;;;;6266812;28;20197;-73
2023/01/24 00:53:44;;;;;;;9.35;6.10;;;;;;;;;;6267458;28;20052;-70
2023/01/24 00:56:46;;;;;;;10.20;6.43;;;;;;;;;;6267105;28;20605;-73
2023/01/24 00:59:48;;;;;;;8.40;6.00;;;;;;;;;;6266584;28;20049;-74
2023/01/24 01:02:51;;;;;;;12.82;6.10;;;;;;;;;;6266408;28;20061;-72
2023/01/24 01:05:58;;;;;;;10.68;5.90;;;;;;;;;;6267462;28;20053;-74
2023/01/24 01:09:00;;;;;;;9.38;6.00;;;;;;;;;;6269130;28;20053;-74
2023/01/24 01:12:01;;;;;;;8.20;6.00;;;;;;;;;;6266226;28;20517;-73
2023/01/24 01:15:03;;;;;;;8.00;5.60;;;;;;;;;;6266430;28;20049;-74
2023/01/24 01:18:06;;;;;;;8.65;5.45;;;;;;;;;;6264075;28;20123;-72
2023/01/24 01:21:08;;;;;;;7.90;5.20;;;;;;;;;;6266576;28;20345;-73
2023/01/24 01:24:10;;;;;;;8.02;5.50;;;;;;;;;;6265203;28;20248;-74
2023/01/24 01:27:12;;;;;;;6.25;4.75;;;;;;;;;;6263062;28;20064;-73
2023/01/24 01:30:13;;;;;;;8.40;5.53;;;;;;;;;;6265705;28;20063;-71
2023/01/24 01:33:16;;;;;;;8.68;4.68;;;;;;;;;;6268875;28;20053;-73
2023/01/24 01:36:18;;;;;;;7.85;4.85;;;;;;;;;;6266419;28;20052;-73
2023/01/24 01:39:20;;;;;;;7.03;4.15;;;;;;;;;;6268957;28;20143;-73
2023/01/24 01:42:21;;;;;;;6.70;4.60;;;;;;;;;;6264273;28;20090;-71
2023/01/24 01:45:41;;;;;;;6.30;4.60;;;;;;;;;;6264851;28;20061;-74
2023/01/24 01:48:48;;;;;;;6.60;4.82;;;;;;;;;;6267837;28;20512;-74
2023/01/24 01:51:51;;;;;;;7.00;5.03;;;;;;;;;;6262713;28;21559;-74
2023/01/24 01:54:54;;;;;;;9.18;5.05;;;;;;;;;;6265800;28;20052;-73
2023/01/24 01:57:56;;;;;;;6.07;4.03;;;;;;;;;;6264021;28;20466;-72
2023/01/24 02:00:57;;;;;;;6.50;4.35;;;;;;;;;;6266641;28;20057;-74
2023/01/24 02:04:04;;;;;;;8.68;4.03;;;;;;;;;;6267365;28;20053;-74
2023/01/24 02:07:09;;;;;;;6.47;4.15;;;;;;;;;;6265863;28;20104;-72
2023/01/24 02:10:11;;;;;;;9.52;4.50;;;;;;;;;;6265023;28;20048;-74
2023/01/24 02:13:13;;;;;;;6.30;3.85;;;;;;;;;;6264168;28;20053;-74
2023/01/24 02:16:15;;;;;;;6.75;4.25;;;;;;;;;;6262727;28;20045;-73
2023/01/24 02:19:28;;;;;;;7.18;3.88;;;;;;;;;;6265228;28;20336;-73
2023/01/24 02:22:36;;;;;;;7.13;3.80;;;;;;;;;;6267672;28;20052;-71
2023/01/24 02:25:41;;;;;;;5.15;3.83;;;;;;;;;;6263133;28;20271;-73
2023/01/24 02:28:46;;;;;;;5.70;4.10;;;;;;;;;;6265880;28;20037;-73
2023/01/24 02:31:57;;;;;;;5.85;3.50;;;;;;;;;;6263605;28;20265;-74
2023/01/24 02:34:58;;;;;;;5.97;3.95;;;;;;;;;;6263798;28;20057;-73
2023/01/24 02:38:01;;;;;;;5.55;3.40;;;;;;;;;;6266952;28;20049;-74
2023/01/24 02:41:06;;;;;;;7.35;3.72;;;;;;;;;;6266108;28;20057;-73
2023/01/24 02:44:11;;;;;;;5.35;3.60;;;;;;;;;;6263777;28;20049;-74
2023/01/24 02:47:13;;;;;;;5.10;3.40;;;;;;;;;;6259706;28;20049;-74
2023/01/24 02:50:15;;;;;;;5.53;3.85;;;;;;;;;;6264224;28;20111;-74
2023/01/24 02:53:31;;;;;;;4.28;3.42;;;;;;;;;;6264915;28;20053;-74
2023/01/24 02:59:53;;;;;;;5.80;3.60;;;;;;;;;;6265238;28;20065;-73
2023/01/24 03:02:55;;;;;;;8.02;4.20;;;;;;;;;;6263743;28;20509;-73
2023/01/24 03:06:00;;;;;;;6.28;3.67;;;;;;;;;;6262054;28;20061;-73
2023/01/24 03:09:18;;;;;;;5.20;3.28;;;;;;;;;;6262742;28;20048;-73
2023/01/24 03:35:37;;;;;;;5.82;3.25;;;;;;;;;;6262801;28;20162;-70
2023/01/24 03:41:58;;;;;;;4.78;3.35;;;;;;;;;;6264378;28;20048;-72
2023/01/24 03:44:59;;;;;;;4.80;3.60;;;;;;;;;;6263124;28;20059;-73
2023/01/24 03:48:04;;;;;;;5.15;3.30;;;;;;;;;;6260145;28;20072;-73
2023/01/24 03:54:25;;;;;;;6.53;3.42;;;;;;;;;;6263284;28;20056;-74
2023/01/24 03:57:28;;;;;;;5.75;3.70;;;;;;;;;;6264389;28;20218;-74
2023/01/24 04:00:30;;;;;;;4.10;3.08;;;;;;;;;;6261947;28;20061;-73
2023/01/24 04:03:33;;;;;;;4.88;3.17;;;;;;;;;;6261515;28;20578;-72
2023/01/24 04:06:35;;;;;;;4.88;3.42;;;;;;;;;;6260269;28;20334;-74
2023/01/24 04:09:36;;;;;;;5.50;3.95;;;;;;;;;;6261248;28;20329;-72
2023/01/24 04:12:38;;;;;;;6.13;4.13;;;;;;;;;;6261592;28;20064;-74
2023/01/24 04:15:40;;;;;;;6.35;3.97;;;;;;;;;;6266326;28;20052;-74
2023/01/24 04:18:44;;;;;;;5.15;3.47;;;;;;;;;;6266648;28;20052;-73
2023/01/24 04:21:45;;;;;;;5.38;3.97;;;;;;;;;;6267326;28;20052;-73
2023/01/24 04:24:47;;;;;;;5.30;4.03;;;;;;;;;;6267815;28;20041;-73
2023/01/24 04:27:49;;;;;;;6.10;4.22;;;;;;;;;;6265914;28;20367;-74
2023/01/24 04:30:56;;;;;;;6.20;4.25;;;;;;;;;;6267711;28;20332;-70
2023/01/24 04:33:59;;;;;;;8.73;4.28;;;;;;;;;;6265830;28;20095;-73
2023/01/24 04:37:01;;;;;;;7.65;3.85;;;;;;;;;;6267293;28;20045;-74
2023/01/24 04:40:03;;;;;;;8.00;4.90;;;;;;;;;;6267284;28;20056;-72
2023/01/24 04:43:05;;;;;;;6.85;4.95;;;;;;;;;;6269232;28;20096;-74
2023/01/24 04:46:06;;;;;;;14.45;6.07;;;;;;;;;;6265584;28;20229;-74
2023/01/24 04:49:10;;;;;;;10.75;6.30;;;;;;;;;;6266894;28;20057;-76
2023/01/24 04:52:12;;;;;;;13.60;7.22;;;;;;;;;;6265680;28;20272;-74
2023/01/24 04:55:14;;;;;;;9.18;5.55;;;;;;;;;;6266829;28;20391;-72
2023/01/24 04:58:16;;;;;;;10.40;7.05;;;;;;;;;;6267841;28;20328;-73
2023/01/24 05:01:17;;;;;;;12.93;7.30;;;;;;;;;;6267303;28;20106;-74
2023/01/24 05:04:20;;;;;;;14.10;8.18;;;;;;;;;;6266292;28;20049;-71
2023/01/24 05:07:22;;;;;;;14.88;8.73;;;;;;;;;;6266897;28;20091;-73
2023/01/24 05:10:24;;;;;;;12.65;8.45;;;;;;;;;;6266943;28;20072;-73
2023/01/24 05:13:25;;;;;;;13.23;8.32;;;;;;;;;;6264530;28;20045;-73
2023/01/24 05:16:27;;;;;;;12.55;8.27;;;;;;;;;;6264223;28;20049;-73
2023/01/24 05:19:30;;;;;;;15.70;9.07;;;;;;;;;;6265989;28;20100;-74
2023/01/24 05:22:32;;;;;;;14.57;9.65;;;;;;;;;;6265217;28;20041;-73
2023/01/24 05:25:33;;;;;;;14.05;8.63;;;;;;;;;;6261399;28;20060;-73
2023/01/24 05:28:36;;;;;;;13.60;8.90;;;;;;;;;;6264323;28;20061;-74
2023/01/24 05:31:38;;;;;;;16.85;9.80;;;;;;;;;;6266862;28;20053;-73
2023/01/24 05:34:41;;;;;;;14.85;9.25;;;;;;;;;;6265801;28;20053;-73
2023/01/24 05:37:43;;;;;;;12.98;8.98;;;;;;;;;;6265292;28;20071;-74
2023/01/24 05:40:44;;;;;;;18.65;9.55;;;;;;;;;;6264374;28;20111;-72
2023/01/24 05:43:47;;;;;;;14.93;9.82;;;;;;;;;;6268302;28;20057;-73
2023/01/24 05:46:48;;;;;;;14.45;9.07;;;;;;;;;;6263926;28;20056;-74
2023/01/24 05:49:51;;;;;;;15.20;9.80;;;;;;;;;;6266100;28;20267;-73
2023/01/24 05:52:53;;;;;;;18.58;10.93;;;;;;;;;;6265169;28;20107;-73
2023/01/24 05:55:56;;;;;;;14.10;9.52;;;;;;;;;;6264369;28;20056;-73
2023/01/24 05:59:00;;;;;;;15.23;10.00;;;;;;;;;;6265405;28;20049;-74
2023/01/24 06:02:02;;;;;;;19.73;10.88;;;;;;;;;;6265861;28;20063;-73
2023/01/24 06:05:07;;;;;;;16.75;9.68;;;;;;;;;;6265709;28;20045;-74
2023/01/24 06:08:08;;;;;;;13.65;9.15;;;;;;;;;;6262424;28;20049;-74
2023/01/24 06:11:13;;;;;;;15.32;9.27;;;;;;;;;;6266403;28;20056;-72
2023/01/24 06:14:15;;;;;;;14.50;9.48;;;;;;;;;;6261924;28;20049;-77
2023/01/24 06:17:16;;;;;;;16.30;8.57;;;;;;;;;;6266739;28;20053;-75
2023/01/24 06:20:20;;;;;;;15.35;8.60;;;;;;;;;;6264136;28;20297;-76
2023/01/24 06:23:25;;;;;;;13.07;8.88;;;;;;;;;;6264202;28;20757;-78
2023/01/24 06:26:27;;;;;;;12.13;8.25;;;;;;;;;;6265318;28;20102;-77
2023/01/24 06:29:30;;;;;;;17.90;8.88;;;;;;;;;;6262970;28;20461;-78
2023/01/24 06:32:44;;;;;;;18.15;8.80;;;;;;;;;;6268253;28;20056;-78
2023/01/24 06:36:01;;;;;;;16.58;8.98;;;;;;;;;;6263360;28;20042;-77
2023/01/24 06:39:03;;;;;;;17.90;8.20;;;;;;;;;;6264481;28;20360;-78
2023/01/24 06:42:06;;;;;;;14.85;7.68;;;;;;;;;;6263536;28;20083;-78
2023/01/24 06:45:09;;;;;;;11.25;7.20;;;;;;;;;;6262391;28;21533;-74
2023/01/24 06:48:11;;;;;;;14.47;6.87;;;;;;;;;;6261417;28;20056;-76
2023/01/24 06:51:14;;;;;;;13.07;7.18;;;;;;;;;;6266075;28;20053;-75
2023/01/24 06:54:17;;;;;;;11.10;6.28;;;;;;;;;;6265946;28;20200;-78
2023/01/24 06:57:18;;;;;;;14.40;7.30;;;;;;;;;;6266858;28;20067;-79
2023/01/24 07:00:21;;;;;;;19.15;7.43;;;;;;;;;;6266419;28;20057;-80
2023/01/24 07:03:22;;;;;;;9.88;7.13;;;;;;;;;;6266412;28;20060;-77
2023/01/24 07:06:26;;;;;;;14.00;7.20;;;;;;;;;;6267206;28;20076;-76
2023/01/24 07:09:28;;;;;;;15.38;8.30;;;;;;;;;;6266366;28;20253;-77
2023/01/24 07:12:30;;;;;;;14.07;7.32;;;;;;;;;;6267783;28;20073;-79
2023/01/24 07:15:33;;;;;;;14.88;7.20;;;;;;;;;;6266242;28;20140;-78
2023/01/24 07:18:35;;;;;;;11.70;7.25;;;;;;;;;;6271037;28;20057;-79
2023/01/24 07:21:40;;;;;;;15.48;7.97;;;;;;;;;;6267548;28;20061;-78
2023/01/24 07:24:43;;;;;;;12.32;7.75;;;;;;;;;;6260169;28;20049;-77
2023/01/24 07:27:45;;;;;;;13.68;7.63;;;;;;;;;;6261513;28;20194;-79
2023/01/24 07:30:47;;;;;;;18.05;7.07;;;;;;;;;;6260809;28;20080;-77
2023/01/24 07:33:48;;;;;;;10.32;7.03;;;;;;;;;;6262267;28;20057;-80
2023/01/24 07:36:51;;;;;;;11.25;7.45;;;;;;;;;;6263936;28;20063;-80
2023/01/24 07:39:53;;;;;;;11.13;6.85;;;;;;;;;;6259607;28;20057;-71
2023/01/24 07:42:55;;;;;;;13.77;7.30;;;;;;;;;;6263668;28;20094;-74
2023/01/24 07:45:56;;;;;;;13.70;6.35;;;;;;;;;;6260716;28;20103;-73
2023/01/24 07:48:58;;;;;;;14.98;6.60;;;;;;;;;;6263547;28;20308;-74
2023/01/24 07:52:01;;;;;;;10.05;6.47;;;;;;;;;;6268564;28;20251;-74
2023/01/24 07:55:03;;;;;;;11.95;7.38;;;;;;;;;;6267106;28;20071;-73
2023/01/24 07:58:05;;;;;;;14.85;7.43;;;;;;;;;;6263498;28;20048;-74
2023/01/24 08:01:06;;;;;;;12.75;6.65;;;;;;;;;;6264248;28;20053;-74
2023/01/24 08:04:08;;;;;;;11.50;6.72;;;;;;;;;;6260865;28;20052;-74
2023/01/24 08:07:20;;;;;;;10.98;6.28;;;;;;;;;;6263022;28;20118;-74
2023/01/24 08:10:22;;;;;;;12.27;6.35;;;;;;;;;;6264909;28;20068;-74
2023/01/24 08:13:24;;;;;;;12.20;6.57;;;;;;;;;;6262684;28;20061;-75
2023/01/24 08:16:26;;;;;;;12.40;6.47;;;;;;;;;;6263392;28;20107;-74
2023/01/24 08:19:27;;;;;;;14.75;7.60;;;;;;;;;;6262289;28;20059;-75
2023/01/24 08:22:30;;;;;;;8.88;6.28;;;;;;;;;;6263194;28;20391;-74
2023/01/24 08:25:33;;;;;;;13.02;7.07;;;;;;;;;;6264174;28;20056;-74
2023/01/24 08:28:35;;;;;;;12.65;6.70;;;;;;;;;;6260661;28;20044;-73
2023/01/24 08:31:37;;;;;;;11.07;6.25;;;;;;;;;;6263566;28;20061;-73
2023/01/24 08:34:38;;;;;;;10.73;6.68;;;;;;;;;;6260777;28;20059;-74
2023/01/24 08:37:42;;;;;;;10.65;6.90;;;;;;;;;;6261075;28;20162;-75
2023/01/24 08:40:44;;;;;;;11.97;6.90;;;;;;;;;;6262389;28;20045;-72
2023/01/24 08:43:45;;;;;;;8.63;4.93;;;;;;;;;;6262275;28;20052;-75
2023/01/24 08:46:47;;;;;;;11.05;4.97;;;;;;;;;;6261103;28;20120;-73
2023/01/24 08:49:49;;;;;;;7.53;4.90;;;;;;;;;;6262326;28;20060;-75
2023/01/24 08:52:55;;;;;;;9.40;4.15;;;;;;;;;;6263196;28;20071;-76
2023/01/24 08:55:56;;;;;;;7.20;3.42;;;;;;;;;;6262286;28;20049;-75
2023/01/24 08:58:58;;;;;;;3.17;2.25;;;;;;;;;;6260681;28;20049;-75
2023/01/24 09:02:00;;;;;;;7.43;2.65;;;;;;;;;;6268429;28;20072;-72
2023/01/24 09:05:02;;;;;;;3.63;2.40;;;;;;;;;;6267176;28;20059;-75
2023/01/24 09:08:05;;;;;;;5.10;3.13;;;;;;;;;;6269121;28;20045;-73
2023/01/24 09:11:07;;;;;;;6.55;1.80;;;;;;;;;;6266327;28;20060;-74
2023/01/24 09:14:09;;;;;;;4.43;3.03;;;;;;;;;;6264941;28;20063;-74
2023/01/24 09:17:10;;;;;;;6.28;3.05;;;;;;;;;;6265029;28;20056;-70
2023/01/24 09:20:12;;;;;;;4.97;2.92;;;;;;;;;;6264642;28;20049;-77
2023/01/24 09:23:15;;;;;;;4.75;3.30;;;;;;;;;;6266219;28;20337;-72
2023/01/24 09:26:17;;;;;;;6.45;3.17;;;;;;;;;;6264425;28;20057;-74
2023/01/24 09:29:19;;;;;;;3.55;2.58;;;;;;;;;;6268882;28;20060;-75
2023/01/24 09:32:20;;;;;;;4.70;2.83;;;;;;;;;;6267159;28;20099;-72
2023/01/24 09:35:22;;;;;;;4.70;2.92;;;;;;;;;;6269091;28;20060;-73
2023/01/24 09:38:27;;;;;;;8.45;2.90;;;;;;;;;;6270409;28;20051;-74
2023/01/24 09:41:38;;;;;;;17.13;3.30;;;;;;;;;;6271351;28;20049;-73
2023/01/24 09:44:45;;;;;;;5.32;2.58;;;;;;;;;;6270574;28;20040;-73
2023/01/24 09:47:49;;;;;;;4.47;2.50;;;;;;;;;;6271350;28;20116;-74
2023/01/24 09:50:52;;;;;;;4.70;2.67;;;;;;;;;;6269993;28;20073;-73
2023/01/24 09:53:57;;;;;;;4.00;2.42;;;;;;;;;;6269696;28;20073;-72
2023/01/24 09:56:58;;;;;;;2.97;1.98;;;;;;;;;;6272971;28;20049;-73
2023/01/24 10:00:04;;;;;;;4.53;2.30;;;;;;;;;;6269967;28;20415;-73
2023/01/24 10:03:23;;;;;;;6.82;2.88;;;;;;;;;;6268043;28;20099;-73
2023/01/24 10:06:26;;;;;;;4.07;3.03;;;;;;;;;;6266119;28;20053;-73
2023/01/24 10:09:36;;;;;;;4.07;3.15;;;;;;;;;;6267163;28;20277;-74
2023/01/24 10:12:44;;;;;;;5.38;3.10;;;;;;;;;;6263720;28;20053;-72
2023/01/24 10:15:49;;;;;;;5.53;3.13;;;;;;;;;;6263742;28;20124;-74
2023/01/24 10:18:59;;;;;;;4.72;3.65;;;;;;;;;;6264162;28;20305;-73
2023/01/24 10:22:22;;;;;;;6.18;3.55;;;;;;;;;;6263649;28;20107;-74
2023/01/24 10:25:26;;;;;;;4.05;2.70;;;;;;;;;;6266333;28;20264;-73
2023/01/24 10:28:30;;;;;;;4.60;2.80;;;;;;;;;;6264369;28;20045;-74
2023/01/24 10:31:35;;;;;;;3.63;2.42;;;;;;;;;;6266304;28;20045;-72
2023/01/24 10:34:39;;;;;;;4.10;2.35;;;;;;;;;;6265604;28;20075;-73
2023/01/24 10:37:43;;;;;;;3.53;2.60;;;;;;;;;;6264947;28;20343;-74
2023/01/24 10:40:55;;;;;;;3.90;2.40;;;;;;;;;;6263956;28;20233;-74
2023/01/24 10:44:00;;;;;;;5.90;2.80;;;;;;;;;;6270009;28;20045;-69
2023/01/24 10:47:26;;;;;;;5.05;2.28;;;;;;;;;;6265858;28;20048;-74
2023/01/24 10:50:34;;;;;;;5.43;2.53;;;;;;;;;;6261085;28;20277;-73
2023/01/24 10:53:36;;;;;;;5.97;2.92;;;;;;;;;;6265459;28;20049;-72
2023/01/24 10:56:41;;;;;;;4.30;2.53;;;;;;;;;;6269025;28;20048;-73
2023/01/24 10:59:43;;;;;;;5.47;2.42;;;;;;;;;;6264038;28;20044;-74
2023/01/24 11:02:48;;;;;;;5.13;2.40;;;;;;;;;;6263927;28;20053;-74
2023/01/24 11:05:51;;;;;;;4.38;2.58;;;;;;;;;;6263583;28;20094;-70
2023/01/24 11:09:01;;;;;;;3.50;2.55;;;;;;;;;;6265300;28;20376;-70
2023/01/24 11:12:04;;;;;;;3.50;2.53;;;;;;;;;;6264207;28;20333;-73
2023/01/24 11:15:16;;;;;;;3.22;2.55;;;;;;;;;;6264053;28;20090;-74
2023/01/24 11:18:21;;;;;;;3.97;2.30;;;;;;;;;;6263819;28;20057;-75
2023/01/24 11:21:23;;;;;;;6.20;2.25;;;;;;;;;;6264240;28;20277;-74
2023/01/24 11:24:24;;;;;;;3.60;2.47;;;;;;;;;;6261272;28;20050;-73
2023/01/24 11:27:28;;;;;;;4.53;2.65;;;;;;;;;;6262914;28;20053;-74
2023/01/24 11:30:34;;;;;;;4.63;3.07;;;;;;;;;;6265665;28;20053;-73
2023/01/24 11:33:58;;;;;;;4.65;2.80;;;;;;;;;;6262049;28;20120;-72
2023/01/24 11:37:07;;;;;;;9.00;3.08;;;;;;;;;;6265034;28;20049;-70
2023/01/24 11:40:20;;;;;;;5.15;2.90;;;;;;;;;;6263808;28;20061;-70
2023/01/24 11:43:36;;;;;;;5.93;3.55;;;;;;;;;;6263434;28;20055;-70
2023/01/24 11:46:47;;;;;;;9.10;3.80;;;;;;;;;;6262756;28;20091;-73
2023/01/24 11:50:03;;;;;;;5.68;3.55;;;;;;;;;;6265060;28;20053;-71
2023/01/24 11:53:22;;;;;;;7.00;3.92;;;;;;;;;;6262335;28;20049;-74
2023/01/24 11:56:30;;;;;;;8.35;5.07;;;;;;;;;;6262712;28;20106;-74
2023/01/24 11:59:41;;;;;;;7.22;5.30;;;;;;;;;;6262440;28;20061;-73
2023/01/24 12:03:01;;;;;;;7.80;4.90;;;;;;;;;;6261780;28;20052;-72
2023/01/24 12:06:19;;;;;;;7.35;4.00;;;;;;;;;;6264129;28;20912;-73
2023/01/24 12:09:22;;;;;;;5.20;3.65;;;;;;;;;;6261988;28;20049;-74
2023/01/24 12:12:29;;;;;;;6.00;3.93;;;;;;;;;;6264024;28;20095;-69
2023/01/24 12:15:39;;;;;;;7.50;4.32;;;;;;;;;;6261736;28;20049;-75
2023/01/24 12:19:13;;;;;;;7.28;3.92;;;;;;;;;;6262511;28;20044;-72
2023/01/24 12:22:18;;;;;;;9.82;4.53;;;;;;;;;;6208766;28;20056;-74
2023/01/24 12:25:24;;;;;;;9.20;4.60;;;;;;;;;;6209304;28;20054;-74
2023/01/24 12:28:29;;;;;;;9.10;4.40;;;;;;;;;;6207449;28;20320;-74
2023/01/24 12:31:39;;;;;;;8.20;5.05;;;;;;;;;;6208750;28;20050;-72
2023/01/24 12:34:45;;;;;;;6.78;4.68;;;;;;;;;;6209887;28;20069;-71
2023/01/24 12:37:50;;;;;;;7.40;4.82;;;;;;;;;;6216834;28;20053;-72
2023/01/24 12:40:54;;;;;;;7.97;4.93;;;;;;;;;;6215575;28;20053;-74
2023/01/24 12:43:59;;;;;;;8.73;5.20;;;;;;;;;;6213720;28;20113;-74
2023/01/24 12:47:21;;;;;;;6.05;4.90;;;;;;;;;;6217548;28;20258;-73
2023/01/24 12:50:26;;;;;;;7.90;5.13;;;;;;;;;;6215514;28;20337;-75
2023/01/24 12:53:32;;;;;;;9.48;5.20;;;;;;;;;;6217016;28;20058;-73
2023/01/24 12:56:42;;;;;;;7.18;4.93;;;;;;;;;;6222133;28;20053;-74
2023/01/24 12:59:43;;;;;;;10.82;5.10;;;;;;;;;;6266709;28;20049;-73
2023/01/24 13:03:21;;;;;;;8.00;4.93;;;;;;;;;;6266950;28;20110;-74
2023/01/24 13:06:28;;;;;;;7.57;5.15;;;;;;;;;;6263512;28;20349;-70
2023/01/24 13:09:35;;;;;;;12.02;5.82;;;;;;;;;;6269723;28;20052;-75
2023/01/24 13:12:37;;;;;;;10.02;5.68;;;;;;;;;;6266211;28;20041;-75
2023/01/24 13:15:46;;;;;;;10.85;5.45;;;;;;;;;;6265832;28;20110;-74
2023/01/24 13:18:55;;;;;;;11.02;6.35;;;;;;;;;;6265104;28;20076;-75
2023/01/24 13:22:03;;;;;;;10.52;6.60;;;;;;;;;;6264710;28;20095;-74
2023/01/24 13:25:22;;;;;;;7.18;5.38;;;;;;;;;;6264820;28;20057;-72
2023/01/24 13:28:33;;;;;;;10.77;6.75;;;;;;;;;;6266247;28;20324;-75
2023/01/24 13:31:47;;;;;;;15.02;7.10;;;;;;;;;;6263940;28;20116;-73
2023/01/24 13:34:52;;;;;;;13.68;6.70;;;;;;;;;;6268219;28;20049;-75
2023/01/24 13:37:56;;;;;;;13.55;7.20;;;;;;;;;;6268020;28;20057;-74
2023/01/24 13:41:00;;;;;;;11.57;7.47;;;;;;;;;;6265067;28;20360;-75
2023/01/24 13:44:03;;;;;;;12.40;6.80;;;;;;;;;;6264213;28;20073;-74
2023/01/24 13:47:23;;;;;;;13.05;8.35;;;;;;;;;;6263887;28;20049;-74
2023/01/24 13:50:27;;;;;;;11.98;7.50;;;;;;;;;;6265431;28;20060;-74
2023/01/24 13:53:57;;;;;;;10.35;7.05;;;;;;;;;;6265691;28;20072;-75
2023/01/24 13:57:24;;;;;;;11.75;7.10;;;;;;;;;;6262656;28;20053;-74
2023/01/24 14:00:28;;;;;;;12.60;7.05;;;;;;;;;;6265401;28;20315;-73
2023/01/24 14:03:32;;;;;;;15.60;7.75;;;;;;;;;;6265931;28;20049;-71
2023/01/24 14:06:42;;;;;;;11.88;6.85;;;;;;;;;;6264069;28;20049;-75
2023/01/24 14:09:44;;;;;;;11.48;7.07;;;;;;;;;;6265965;28;20053;-75
2023/01/24 14:12:54;;;;;;;9.45;6.90;;;;;;;;;;6263883;28;20394;-75
2023/01/24 14:15:56;;;;;;;10.15;7.18;;;;;;;;;;6266093;28;20131;-75
2023/01/24 14:18:59;;;;;;;10.70;6.93;;;;;;;;;;6264329;28;20059;-75
2023/01/24 14:22:06;;;;;;;14.82;7.25;;;;;;;;;;6265405;28;20099;-73
2023/01/24 14:25:38;;;;;;;10.45;7.25;;;;;;;;;;6267538;28;20061;-74
2023/01/24 14:28:41;;;;;;;9.60;7.07;;;;;;;;;;6166059;28;20058;-74
2023/01/24 14:31:46;;;;;;;14.65;7.22;;;;;;;;;;6163750;28;20244;-75
2023/01/24 14:34:52;;;;;;;10.68;7.68;;;;;;;;;;6163340;28;20055;-74
2023/01/24 14:38:11;;;;;;;10.80;8.07;;;;;;;;;;6162024;28;20063;-74
2023/01/24 14:41:20;;;;;;;10.02;7.03;;;;;;;;;;6165169;28;20063;-74
2023/01/24 14:44:23;;;;;;;10.07;7.07;;;;;;;;;;6164124;28;20164;-73
2023/01/24 14:47:27;;;;;;;10.93;7.07;;;;;;;;;;6163970;28;20373;-74
2023/01/24 14:50:33;;;;;;;9.65;7.18;;;;;;;;;;6160797;28;20055;-74
2023/01/24 14:53:37;;;;;;;9.48;7.07;;;;;;;;;;6165075;28;20061;-74
2023/01/24 14:56:40;;;;;;;12.75;7.70;;;;;;;;;;6162722;28;20058;-75
2023/01/24 14:59:42;;;;;;;15.55;7.05;;;;;;;;;;6163037;28;20047;-75
2023/01/24 15:02:52;;;;;;;10.60;6.82;;;;;;;;;;6166532;28;20092;-71
2023/01/24 15:05:57;;;;;;;9.65;6.97;;;;;;;;;;6262538;28;20076;-74
2023/01/24 15:09:02;;;;;;;12.30;6.80;;;;;;;;;;6262080;28;20060;-74
2023/01/24 15:12:24;;;;;;;16.45;7.38;;;;;;;;;;6263816;28;20346;-75
2023/01/24 15:15:26;;;;;;;9.73;7.65;;;;;;;;;;6264713;28;20370;-75
2023/01/24 15:18:39;;;;;;;10.27;7.30;;;;;;;;;;6262900;28;20049;-75
2023/01/24 15:21:44;;;;;;;11.80;7.22;;;;;;;;;;6260447;28;20333;-74
2023/01/24 15:24:52;;;;;;;10.05;7.40;;;;;;;;;;6260349;28;20244;-72
2023/01/24 15:27:54;;;;;;;9.02;7.20;;;;;;;;;;6260613;28;20107;-75
2023/01/24 15:30:57;;;;;;;12.93;7.53;;;;;;;;;;6262278;28;20075;-73
2023/01/24 15:34:00;;;;;;;13.27;8.20;;;;;;;;;;6262257;28;20053;-73
2023/01/24 15:37:02;;;;;;;9.85;7.32;;;;;;;;;;6263162;28;20325;-74
2023/01/24 15:40:13;;;;;;;11.65;7.13;;;;;;;;;;6262213;28;20044;-75
2023/01/24 15:51:05;;;;;;;14.55;7.80;;;;;;;;;;6261904;28;20050;-75
2023/01/24 15:53:26;;;;;;;12.85;7.20;;;;;;;;;;6264588;28;20110;-72
2023/01/24 15:56:30;;;;;;;11.38;7.15;;;;;;;;;;6262291;28;20053;-74
2023/01/24 15:59:31;;;;;;;11.95;7.03;;;;;;;;;;6264747;28;20076;-71
2023/01/24 16:02:33;;;;;;;13.52;7.63;;;;;;;;;;6262628;28;20361;-73
2023/01/24 16:05:35;;;;;;;13.52;8.13;;;;;;;;;;6261075;28;20056;-74
2023/01/24 16:08:36;;;;;;;13.35;7.63;;;;;;;;;;6259849;28;20332;-74
2023/01/24 16:11:41;;;;;;;11.75;7.38;;;;;;;;;;6261639;28;20055;-75
2023/01/24 16:14:48;;;;;;;11.75;7.82;;;;;;;;;;6260452;28;20095;-74
2023/01/24 16:17:49;;;;;;;10.23;7.90;;;;;;;;;;6263443;28;20052;-75
2023/01/24 16:20:51;;;;;;;11.30;6.78;;;;;;;;;;6263336;28;20389;-74
2023/01/24 16:23:53;;;;;;;14.07;7.80;;;;;;;;;;6260394;28;20076;-74
2023/01/24 16:26:56;;;;;;;10.02;6.50;;;;;;;;;;6262737;28;20049;-74
2023/01/24 16:29:58;;;;;;;11.65;8.05;;;;;;;;;;6263078;28;20352;-75
2023/01/24 16:33:00;;;;;;;12.82;7.47;;;;;;;;;;6262783;28;20110;-74
2023/01/24 16:36:01;;;;;;;10.77;7.03;;;;;;;;;;6264771;28;20064;-75
2023/01/24 16:39:03;;;;;;;12.23;7.05;;;;;;;;;;6261963;28;20181;-69
2023/01/24 16:42:06;;;;;;;12.10;7.25;;;;;;;;;;6256721;28;20096;-73
2023/01/24 16:45:12;;;;;;;11.73;8.20;;;;;;;;;;6264995;28;20053;-73
2023/01/24 16:48:14;;;;;;;9.45;7.35;;;;;;;;;;6261556;28;20331;-74
2023/01/24 16:51:17;;;;;;;11.75;6.93;;;;;;;;;;6260922;28;20119;-75
2023/01/24 16:54:19;;;;;;;11.63;7.13;;;;;;;;;;6262075;28;20064;-74
2023/01/24 16:57:22;;;;;;;10.45;6.95;;;;;;;;;;6263127;28;20052;-74
2023/01/24 17:00:24;;;;;;;11.80;6.53;;;;;;;;;;6260052;28;20048;-74
2023/01/24 17:03:26;;;;;;;10.50;6.97;;;;;;;;;;6260534;28;20071;-73
2023/01/24 17:06:28;;;;;;;13.20;6.90;;;;;;;;;;6262701;28;20049;-72
2023/01/24 17:09:30;;;;;;;10.07;6.70;;;;;;;;;;6261315;28;20316;-73
2023/01/24 17:12:33;;;;;;;11.35;6.97;;;;;;;;;;6259732;28;20103;-74
2023/01/24 17:15:36;;;;;;;12.43;7.68;;;;;;;;;;6260659;28;20256;-72
2023/01/24 17:18:38;;;;;;;13.05;7.47;;;;;;;;;;6261338;28;20099;-74
2023/01/24 17:21:39;;;;;;;12.80;7.10;;;;;;;;;;6264785;28;20056;-73
2023/01/24 17:24:41;;;;;;;12.10;7.13;;;;;;;;;;6266244;28;20116;-74
2023/01/24 17:27:44;;;;;;;12.20;7.35;;;;;;;;;;6265597;28;20284;-74
2023/01/24 17:30:46;;;;;;;11.52;6.50;;;;;;;;;;6266065;28;20222;-74
2023/01/24 17:33:48;;;;;;;12.60;6.90;;;;;;;;;;6268267;28;20110;-74
2023/01/24 17:36:50;;;;;;;9.63;6.68;;;;;;;;;;6267013;28;20049;-74
2023/01/24 17:39:51;;;;;;;12.60;7.47;;;;;;;;;;6264773;28;20064;-74
2023/01/24 17:42:54;;;;;;;12.23;6.65;;;;;;;;;;6265830;28;20069;-74
2023/01/24 17:45:57;;;;;;;10.88;5.85;;;;;;;;;;6260679;28;20530;-74
2023/01/24 17:48:59;;;;;;;8.45;5.65;;;;;;;;;;6263256;28;20268;-72
2023/01/24 17:52:00;;;;;;;10.85;6.18;;;;;;;;;;6264776;28;20048;-73
2023/01/24 17:55:02;;;;;;;9.02;5.50;;;;;;;;;;6266412;28;20167;-73
2023/01/24 17:58:05;;;;;;;10.40;5.75;;;;;;;;;;6264263;28;20352;-73
2023/01/24 18:01:07;;;;;;;10.20;5.03;;;;;;;;;;6264491;28;20143;-71
2023/01/24 18:04:09;;;;;;;10.93;5.70;;;;;;;;;;6263934;28;20049;-73
2023/01/24 18:07:11;;;;;;;9.70;5.38;;;;;;;;;;6265261;28;20322;-74
2023/01/24 18:10:13;;;;;;;8.55;5.30;;;;;;;;;;6263982;28;20277;-74
2023/01/24 18:13:16;;;;;;;9.57;5.80;;;;;;;;;;6264777;28;20473;-73
2023/01/24 18:16:20;;;;;;;8.68;5.00;;;;;;;;;;6263797;28;20241;-73
2023/01/24 18:19:22;;;;;;;9.15;5.63;;;;;;;;;;6265101;28;20056;-72
2023/01/24 18:22:23;;;;;;;8.88;5.78;;;;;;;;;;6266786;28;20053;-73
2023/01/24 18:25:25;;;;;;;8.07;5.43;;;;;;;;;;6264036;28;20060;-71
2023/01/24 18:28:28;;;;;;;12.65;6.05;;;;;;;;;;6263135;28;20095;-71
2023/01/24 18:31:30;;;;;;;9.63;5.13;;;;;;;;;;6264110;28;20095;-73
2023/01/24 18:34:32;;;;;;;9.60;5.25;;;;;;;;;;6261477;28;20049;-73
2023/01/24 18:37:34;;;;;;;9.65;5.53;;;;;;;;;;6265721;28;20118;-73
2023/01/24 18:40:35;;;;;;;11.02;5.57;;;;;;;;;;6263347;28;20045;-72
2023/01/24 18:43:39;;;;;;;11.18;5.70;;;;;;;;;;6264422;28;20057;-73
2023/01/24 18:46:40;;;;;;;11.90;5.93;;;;;;;;;;6264491;28;20070;-74
2023/01/24 18:49:42;;;;;;;10.52;5.75;;;;;;;;;;6262670;28;20579;-73
2023/01/24 18:52:44;;;;;;;7.38;5.38;;;;;;;;;;6264736;28;20049;-73
2023/01/24 18:55:45;;;;;;;9.20;5.70;;;;;;;;;;6266215;28;20106;-74
2023/01/24 18:58:49;;;;;;;12.10;5.72;;;;;;;;;;6267594;28;20056;-72